sensor_id;sensor_type;location;lat;lon;timestamp;temperature;humidity
15638;DHT22;26604;53.596;10.042;2023-08-31T00:00:01;14.30;99.90
15638;DHT22;26604;53.596;10.042;2023-08-31T00:02:30;14.30;99.90
15638;DHT22;26604;53.596;10.042;2023-08-31T00:04:56;14.30;99.90
15638;DHT22;26604;53.596;10.042;2023-08-31T00:07:25;14.30;99.90
15638;DHT22;26604;53.596;10.042;2023-08-31T00:09:52;14.30;99.90
15638;DHT22;26604;53.596;10.042;2023-08-31T00:12:19;14.30;99.90
15638;DHT22;26604;53.596;10.042;2023-08-31T00:14:49;14.30;99.90
15638;DHT22;26604;53.596;10.042;2023-08-31T00:17:16;14.30;99.90
15638;DHT22;26604;53.596;10.042;2023-08-31T00:19:43;14.40;99.90
15638;DHT22;26604;53.596;10.042;2023-08-31T00:22:10;14.30;99.90
15638;DHT22;26604;53.596;10.042;2023-08-31T00:24:38;14.30;99.90
15638;DHT22;26604;53.596;10.042;2023-08-31T00:27:05;14.20;99.90
15638;DHT22;26604;53.596;10.042;2023-08-31T00:29:32;14.20;99.90
15638;DHT22;26604;53.596;10.042;2023-08-31T00:31:59;14.10;99.90
15638;DHT22;26604;53.596;10.042;2023-08-31T00:34:25;14.10;99.90
15638;DHT22;26604;53.596;10.042;2023-08-31T00:36:52;14.10;99.90
15638;DHT22;26604;53.596;10.042;2023-08-31T00:39:19;14.10;99.90
15638;DHT22;26604;53.596;10.042;2023-08-31T00:41:48;14.10;99.90
15638;DHT22;26604;53.596;10.042;2023-08-31T00:44:16;14.10;99.90
15638;DHT22;26604;53.596;10.042;2023-08-31T00:46:43;14.10;99.90
15638;DHT22;26604;53.596;10.042;2023-08-31T00:49:10;14.10;99.90
15638;DHT22;26604;53.596;10.042;2023-08-31T00:51:38;14.00;99.90
15638;DHT22;26604;53.596;10.042;2023-08-31T00:54:06;13.90;99.90
15638;DHT22;26604;53.596;10.042;2023-08-31T00:56:33;13.90;99.90
15638;DHT22;26604;53.596;10.042;2023-08-31T00:59:01;13.90;99.90
15638;DHT22;26604;53.596;10.042;2023-08-31T01:01:36;13.90;99.90
15638;DHT22;26604;53.596;10.042;2023-08-31T01:04:11;13.80;99.90
15638;DHT22;26604;53.596;10.042;2023-08-31T01:06:50;13.80;99.90
15638;DHT22;26604;53.596;10.042;2023-08-31T01:09:27;13.80;99.90
15638;DHT22;26604;53.596;10.042;2023-08-31T01:11:59;13.80;99.90
15638;DHT22;26604;53.596;10.042;2023-08-31T01:14:33;13.70;99.90
15638;DHT22;26604;53.596;10.042;2023-08-31T01:17:02;13.60;99.90
15638;DHT22;26604;53.596;10.042;2023-08-31T01:19:44;13.50;99.90
15638;DHT22;26604;53.596;10.042;2023-08-31T01:22:16;13.40;99.90
15638;DHT22;26604;53.596;10.042;2023-08-31T01:24:46;13.30;99.90
15638;DHT22;26604;53.596;10.042;2023-08-31T01:27:13;13.20;99.90
15638;DHT22;26604;53.596;10.042;2023-08-31T01:29:41;13.10;99.90
15638;DHT22;26604;53.596;10.042;2023-08-31T01:32:08;13.10;99.90
15638;DHT22;26604;53.596;10.042;2023-08-31T01:34:35;13.00;99.90
15638;DHT22;26604;53.596;10.042;2023-08-31T01:37:10;13.00;99.90
15638;DHT22;26604;53.596;10.042;2023-08-31T01:39:43;12.90;99.90
15638;DHT22;26604;53.596;10.042;2023-08-31T01:42:15;12.90;99.90
15638;DHT22;26604;53.596;10.042;2023-08-31T01:44:43;12.90;99.90
15638;DHT22;26604;53.596;10.042;2023-08-31T01:47:15;12.90;99.90
15638;DHT22;26604;53.596;10.042;2023-08-31T01:49:44;12.90;99.90
15638;DHT22;26604;53.596;10.042;2023-08-31T01:52:11;12.90;99.90
15638;DHT22;26604;53.596;10.042;2023-08-31T01:54:38;12.90;99.90
15638;DHT22;26604;53.596;10.042;2023-08-31T01:57:05;12.90;99.90
15638;DHT22;26604;53.596;10.042;2023-08-31T01:59:34;12.80;99.90
15638;DHT22;26604;53.596;10.042;2023-08-31T02:02:01;12.80;99.90
15638;DHT22;26604;53.596;10.042;2023-08-31T02:04:28;12.80;99.90
15638;DHT22;26604;53.596;10.042;2023-08-31T02:06:54;12.70;99.90
15638;DHT22;26604;53.596;10.042;2023-08-31T02:09:21;12.70;99.90
15638;DHT22;26604;53.596;10.042;2023-08-31T02:11:48;12.60;99.90
15638;DHT22;26604;53.596;10.042;2023-08-31T02:14:15;12.60;99.90
15638;DHT22;26604;53.596;10.042;2023-08-31T02:16:43;12.50;99.90
15638;DHT22;26604;53.596;10.042;2023-08-31T02:19:10;12.50;99.90
15638;DHT22;26604;53.596;10.042;2023-08-31T02:21:36;12.50;99.90
15638;DHT22;26604;53.596;10.042;2023-08-31T02:24:04;12.40;99.90
15638;DHT22;26604;53.596;10.042;2023-08-31T02:26:32;12.40;99.90
15638;DHT22;26604;53.596;10.042;2023-08-31T02:28:59;12.40;99.90
15638;DHT22;26604;53.596;10.042;2023-08-31T02:31:26;12.30;99.90
15638;DHT22;26604;53.596;10.042;2023-08-31T02:33:54;12.30;99.90
15638;DHT22;26604;53.596;10.042;2023-08-31T02:36:21;12.20;99.90
15638;DHT22;26604;53.596;10.042;2023-08-31T02:38:48;12.20;99.90
15638;DHT22;26604;53.596;10.042;2023-08-31T02:41:15;12.20;99.90
15638;DHT22;26604;53.596;10.042;2023-08-31T02:43:42;12.10;99.90
15638;DHT22;26604;53.596;10.042;2023-08-31T02:46:18;12.10;99.90
15638;DHT22;26604;53.596;10.042;2023-08-31T02:48:46;12.00;99.90
15638;DHT22;26604;53.596;10.042;2023-08-31T02:51:14;12.00;99.90
15638;DHT22;26604;53.596;10.042;2023-08-31T02:53:41;11.90;99.90
15638;DHT22;26604;53.596;10.042;2023-08-31T02:56:08;11.80;99.90
15638;DHT22;26604;53.596;10.042;2023-08-31T02:58:35;11.80;99.90
15638;DHT22;26604;53.596;10.042;2023-08-31T03:01:08;11.70;99.90
15638;DHT22;26604;53.596;10.042;2023-08-31T03:03:37;11.70;99.90
15638;DHT22;26604;53.596;10.042;2023-08-31T03:06:05;11.60;99.90
15638;DHT22;26604;53.596;10.042;2023-08-31T03:08:34;11.60;99.90
15638;DHT22;26604;53.596;10.042;2023-08-31T03:11:02;11.60;99.90
15638;DHT22;26604;53.596;10.042;2023-08-31T03:13:29;11.70;99.90
15638;DHT22;26604;53.596;10.042;2023-08-31T03:15:55;11.70;99.90
15638;DHT22;26604;53.596;10.042;2023-08-31T03:18:23;11.70;99.90
15638;DHT22;26604;53.596;10.042;2023-08-31T03:20:50;11.70;99.90
15638;DHT22;26604;53.596;10.042;2023-08-31T03:23:17;11.60;99.90
15638;DHT22;26604;53.596;10.042;2023-08-31T03:25:45;11.60;99.90
15638;DHT22;26604;53.596;10.042;2023-08-31T03:28:12;11.60;99.90
15638;DHT22;26604;53.596;10.042;2023-08-31T03:30:39;11.60;99.90
15638;DHT22;26604;53.596;10.042;2023-08-31T03:33:06;11.60;99.90
15638;DHT22;26604;53.596;10.042;2023-08-31T03:35:33;11.50;99.90
15638;DHT22;26604;53.596;10.042;2023-08-31T03:37:59;11.50;99.90
15638;DHT22;26604;53.596;10.042;2023-08-31T03:40:27;11.50;99.90
15638;DHT22;26604;53.596;10.042;2023-08-31T03:42:55;11.30;99.90
15638;DHT22;26604;53.596;10.042;2023-08-31T03:45:22;11.30;99.90
15638;DHT22;26604;53.596;10.042;2023-08-31T03:47:49;11.40;99.90
15638;DHT22;26604;53.596;10.042;2023-08-31T03:50:16;11.30;99.90
15638;DHT22;26604;53.596;10.042;2023-08-31T03:52:42;11.30;99.90
15638;DHT22;26604;53.596;10.042;2023-08-31T03:55:09;11.30;99.90
15638;DHT22;26604;53.596;10.042;2023-08-31T03:57:36;11.20;99.90
15638;DHT22;26604;53.596;10.042;2023-08-31T04:00:06;11.10;99.90
15638;DHT22;26604;53.596;10.042;2023-08-31T04:02:34;11.10;99.90
15638;DHT22;26604;53.596;10.042;2023-08-31T04:05:01;11.10;99.90
15638;DHT22;26604;53.596;10.042;2023-08-31T04:07:30;11.10;99.90
15638;DHT22;26604;53.596;10.042;2023-08-31T04:09:57;11.20;99.90
15638;DHT22;26604;53.596;10.042;2023-08-31T04:12:24;11.20;99.90
15638;DHT22;26604;53.596;10.042;2023-08-31T04:14:51;11.20;99.90
15638;DHT22;26604;53.596;10.042;2023-08-31T04:17:20;11.20;99.90
15638;DHT22;26604;53.596;10.042;2023-08-31T04:19:46;11.10;99.90
15638;DHT22;26604;53.596;10.042;2023-08-31T04:22:13;11.10;99.90
15638;DHT22;26604;53.596;10.042;2023-08-31T04:24:40;11.10;99.90
15638;DHT22;26604;53.596;10.042;2023-08-31T04:27:07;11.10;99.90
15638;DHT22;26604;53.596;10.042;2023-08-31T04:29:34;11.10;99.90
15638;DHT22;26604;53.596;10.042;2023-08-31T04:32:01;11.10;99.90
15638;DHT22;26604;53.596;10.042;2023-08-31T04:34:29;11.10;99.90
15638;DHT22;26604;53.596;10.042;2023-08-31T04:36:57;11.10;99.90
15638;DHT22;26604;53.596;10.042;2023-08-31T04:39:23;11.10;99.90
15638;DHT22;26604;53.596;10.042;2023-08-31T04:41:52;11.10;99.90
15638;DHT22;26604;53.596;10.042;2023-08-31T04:44:19;11.10;99.90
15638;DHT22;26604;53.596;10.042;2023-08-31T04:46:46;11.10;99.90
15638;DHT22;26604;53.596;10.042;2023-08-31T04:49:13;11.10;99.90
15638;DHT22;26604;53.596;10.042;2023-08-31T04:51:43;11.10;99.90
15638;DHT22;26604;53.596;10.042;2023-08-31T04:54:10;11.20;99.90
15638;DHT22;26604;53.596;10.042;2023-08-31T04:56:37;11.10;99.90
15638;DHT22;26604;53.596;10.042;2023-08-31T04:59:04;11.10;99.90
15638;DHT22;26604;53.596;10.042;2023-08-31T05:01:31;11.20;99.90
15638;DHT22;26604;53.596;10.042;2023-08-31T05:03:58;11.30;99.90
15638;DHT22;26604;53.596;10.042;2023-08-31T05:06:25;11.30;99.90
15638;DHT22;26604;53.596;10.042;2023-08-31T05:08:53;11.40;99.90
15638;DHT22;26604;53.596;10.042;2023-08-31T05:11:20;11.40;99.90
15638;DHT22;26604;53.596;10.042;2023-08-31T05:13:47;11.40;99.90
15638;DHT22;26604;53.596;10.042;2023-08-31T05:16:14;11.40;99.90
15638;DHT22;26604;53.596;10.042;2023-08-31T05:18:41;11.40;99.90
15638;DHT22;26604;53.596;10.042;2023-08-31T05:21:08;11.50;99.90
15638;DHT22;26604;53.596;10.042;2023-08-31T05:23:35;11.50;99.90
15638;DHT22;26604;53.596;10.042;2023-08-31T05:26:03;11.60;99.90
15638;DHT22;26604;53.596;10.042;2023-08-31T05:28:30;11.60;99.90
15638;DHT22;26604;53.596;10.042;2023-08-31T05:30:59;11.60;99.90
15638;DHT22;26604;53.596;10.042;2023-08-31T05:33:25;11.60;99.90
15638;DHT22;26604;53.596;10.042;2023-08-31T05:35:54;11.70;99.90
15638;DHT22;26604;53.596;10.042;2023-08-31T05:38:21;11.70;99.90
15638;DHT22;26604;53.596;10.042;2023-08-31T05:40:49;11.70;99.90
15638;DHT22;26604;53.596;10.042;2023-08-31T05:43:17;11.80;99.90
15638;DHT22;26604;53.596;10.042;2023-08-31T05:45:44;11.90;99.90
15638;DHT22;26604;53.596;10.042;2023-08-31T05:48:12;12.00;99.90
15638;DHT22;26604;53.596;10.042;2023-08-31T05:50:39;12.00;99.90
15638;DHT22;26604;53.596;10.042;2023-08-31T05:53:08;12.10;99.90
15638;DHT22;26604;53.596;10.042;2023-08-31T05:55:36;12.10;99.90
15638;DHT22;26604;53.596;10.042;2023-08-31T05:58:03;12.20;99.90
15638;DHT22;26604;53.596;10.042;2023-08-31T06:00:31;12.20;99.90
15638;DHT22;26604;53.596;10.042;2023-08-31T06:02:58;12.30;99.90
15638;DHT22;26604;53.596;10.042;2023-08-31T06:05:25;12.40;99.90
15638;DHT22;26604;53.596;10.042;2023-08-31T06:07:53;12.40;99.90
15638;DHT22;26604;53.596;10.042;2023-08-31T06:10:19;12.40;99.90
15638;DHT22;26604;53.596;10.042;2023-08-31T06:12:48;12.50;99.90
15638;DHT22;26604;53.596;10.042;2023-08-31T06:15:15;12.50;99.90
15638;DHT22;26604;53.596;10.042;2023-08-31T06:17:44;12.60;99.90
15638;DHT22;26604;53.596;10.042;2023-08-31T06:20:11;12.60;99.90
15638;DHT22;26604;53.596;10.042;2023-08-31T06:22:38;12.70;99.90
15638;DHT22;26604;53.596;10.042;2023-08-31T06:25:05;12.80;99.90
15638;DHT22;26604;53.596;10.042;2023-08-31T06:27:33;12.90;99.90
15638;DHT22;26604;53.596;10.042;2023-08-31T06:30:01;12.90;99.90
15638;DHT22;26604;53.596;10.042;2023-08-31T06:32:28;13.00;99.90
15638;DHT22;26604;53.596;10.042;2023-08-31T06:34:56;13.00;99.90
15638;DHT22;26604;53.596;10.042;2023-08-31T06:37:23;13.10;99.90
15638;DHT22;26604;53.596;10.042;2023-08-31T06:39:50;13.10;99.90
15638;DHT22;26604;53.596;10.042;2023-08-31T06:42:17;13.20;99.90
15638;DHT22;26604;53.596;10.042;2023-08-31T06:44:44;13.30;99.90
15638;DHT22;26604;53.596;10.042;2023-08-31T06:47:11;13.40;99.90
15638;DHT22;26604;53.596;10.042;2023-08-31T06:49:39;13.40;99.90
15638;DHT22;26604;53.596;10.042;2023-08-31T06:52:07;13.50;99.90
15638;DHT22;26604;53.596;10.042;2023-08-31T06:54:34;13.50;99.90
15638;DHT22;26604;53.596;10.042;2023-08-31T06:57:01;13.60;99.90
15638;DHT22;26604;53.596;10.042;2023-08-31T06:59:28;13.60;99.90
15638;DHT22;26604;53.596;10.042;2023-08-31T07:01:55;13.70;99.90
15638;DHT22;26604;53.596;10.042;2023-08-31T07:04:22;13.70;99.90
15638;DHT22;26604;53.596;10.042;2023-08-31T07:06:49;13.80;99.90
15638;DHT22;26604;53.596;10.042;2023-08-31T07:09:19;13.80;99.90
15638;DHT22;26604;53.596;10.042;2023-08-31T07:11:45;13.90;99.90
15638;DHT22;26604;53.596;10.042;2023-08-31T07:14:12;13.90;48.40
15638;DHT22;26604;53.596;10.042;2023-08-31T07:16:39;14.00;44.10
15638;DHT22;26604;53.596;10.042;2023-08-31T07:19:06;14.00;25.90
15638;DHT22;26604;53.596;10.042;2023-08-31T07:21:33;14.10;25.40
15638;DHT22;26604;53.596;10.042;2023-08-31T07:24:00;14.20;25.20
15638;DHT22;26604;53.596;10.042;2023-08-31T07:26:29;14.30;7.50
15638;DHT22;26604;53.596;10.042;2023-08-31T07:28:55;14.30;1.00
15638;DHT22;26604;53.596;10.042;2023-08-31T07:31:22;14.40;1.00
15638;DHT22;26604;53.596;10.042;2023-08-31T07:33:49;14.50;1.00
15638;DHT22;26604;53.596;10.042;2023-08-31T07:36:16;14.60;1.00
15638;DHT22;26604;53.596;10.042;2023-08-31T07:38:43;14.60;1.00
15638;DHT22;26604;53.596;10.042;2023-08-31T07:41:10;14.70;1.00
15638;DHT22;26604;53.596;10.042;2023-08-31T07:43:38;14.80;1.00
15638;DHT22;26604;53.596;10.042;2023-08-31T07:46:05;14.80;1.00
15638;DHT22;26604;53.596;10.042;2023-08-31T07:48:32;14.90;1.00
15638;DHT22;26604;53.596;10.042;2023-08-31T07:50:58;15.00;99.90
15638;DHT22;26604;53.596;10.042;2023-08-31T07:53:25;15.10;99.90
15638;DHT22;26604;53.596;10.042;2023-08-31T07:55:52;15.10;99.90
15638;DHT22;26604;53.596;10.042;2023-08-31T07:58:20;15.20;99.90
15638;DHT22;26604;53.596;10.042;2023-08-31T08:00:48;15.20;99.90
15638;DHT22;26604;53.596;10.042;2023-08-31T08:03:15;15.40;99.90
15638;DHT22;26604;53.596;10.042;2023-08-31T08:05:42;15.50;1.00
15638;DHT22;26604;53.596;10.042;2023-08-31T08:08:09;15.50;1.00
15638;DHT22;26604;53.596;10.042;2023-08-31T08:10:37;15.60;1.00
15638;DHT22;26604;53.596;10.042;2023-08-31T08:13:04;15.60;1.00
15638;DHT22;26604;53.596;10.042;2023-08-31T08:15:31;15.70;1.00
15638;DHT22;26604;53.596;10.042;2023-08-31T08:17:59;15.90;99.90
15638;DHT22;26604;53.596;10.042;2023-08-31T08:20:27;16.20;40.50
15638;DHT22;26604;53.596;10.042;2023-08-31T08:22:54;16.30;71.90
15638;DHT22;26604;53.596;10.042;2023-08-31T08:25:21;16.40;99.90
15638;DHT22;26604;53.596;10.042;2023-08-31T08:27:48;16.60;23.40
15638;DHT22;26604;53.596;10.042;2023-08-31T08:30:15;16.80;99.90
15638;DHT22;26604;53.596;10.042;2023-08-31T08:32:42;17.00;1.00
15638;DHT22;26604;53.596;10.042;2023-08-31T08:35:10;17.20;99.90
15638;DHT22;26604;53.596;10.042;2023-08-31T08:37:37;17.50;99.90
15638;DHT22;26604;53.596;10.042;2023-08-31T08:40:05;17.70;99.90
15638;DHT22;26604;53.596;10.042;2023-08-31T08:42:33;17.80;1.00
15638;DHT22;26604;53.596;10.042;2023-08-31T08:45:06;18.00;99.90
15638;DHT22;26604;53.596;10.042;2023-08-31T08:47:34;18.10;1.00
15638;DHT22;26604;53.596;10.042;2023-08-31T08:50:02;18.10;1.00
15638;DHT22;26604;53.596;10.042;2023-08-31T08:52:31;18.20;1.00
15638;DHT22;26604;53.596;10.042;2023-08-31T08:54:59;18.40;1.00
15638;DHT22;26604;53.596;10.042;2023-08-31T08:57:28;18.50;1.00
15638;DHT22;26604;53.596;10.042;2023-08-31T08:59:57;18.60;99.90
15638;DHT22;26604;53.596;10.042;2023-08-31T09:02:24;18.70;1.00
15638;DHT22;26604;53.596;10.042;2023-08-31T09:04:51;18.80;1.00
15638;DHT22;26604;53.596;10.042;2023-08-31T09:07:20;18.90;99.90
15638;DHT22;26604;53.596;10.042;2023-08-31T09:09:52;19.00;1.00
15638;DHT22;26604;53.596;10.042;2023-08-31T09:12:22;18.90;99.90
15638;DHT22;26604;53.596;10.042;2023-08-31T09:14:59;19.00;99.90
15638;DHT22;26604;53.596;10.042;2023-08-31T09:17:30;19.10;1.00
15638;DHT22;26604;53.596;10.042;2023-08-31T09:20:04;19.30;1.00
15638;DHT22;26604;53.596;10.042;2023-08-31T09:22:33;19.50;1.00
15638;DHT22;26604;53.596;10.042;2023-08-31T09:25:02;19.70;1.00
15638;DHT22;26604;53.596;10.042;2023-08-31T09:27:29;19.90;1.00
15638;DHT22;26604;53.596;10.042;2023-08-31T09:29:58;20.30;99.90
15638;DHT22;26604;53.596;10.042;2023-08-31T09:32:25;20.50;1.00
15638;DHT22;26604;53.596;10.042;2023-08-31T09:34:52;20.50;1.00
15638;DHT22;26604;53.596;10.042;2023-08-31T09:37:19;20.50;1.00
15638;DHT22;26604;53.596;10.042;2023-08-31T09:39:46;20.50;1.00
15638;DHT22;26604;53.596;10.042;2023-08-31T09:42:14;20.60;1.00
15638;DHT22;26604;53.596;10.042;2023-08-31T09:44:43;20.60;1.00
15638;DHT22;26604;53.596;10.042;2023-08-31T09:47:12;20.60;99.90
15638;DHT22;26604;53.596;10.042;2023-08-31T09:49:41;20.40;99.90
15638;DHT22;26604;53.596;10.042;2023-08-31T09:52:09;20.30;99.90
15638;DHT22;26604;53.596;10.042;2023-08-31T09:54:36;20.00;99.90
15638;DHT22;26604;53.596;10.042;2023-08-31T09:57:05;19.60;1.00
15638;DHT22;26604;53.596;10.042;2023-08-31T09:59:33;19.20;1.00
15638;DHT22;26604;53.596;10.042;2023-08-31T10:02:01;18.90;3.60
15638;DHT22;26604;53.596;10.042;2023-08-31T10:04:29;18.70;1.00
15638;DHT22;26604;53.596;10.042;2023-08-31T10:06:59;18.70;99.90
15638;DHT22;26604;53.596;10.042;2023-08-31T10:09:26;18.80;99.90
15638;DHT22;26604;53.596;10.042;2023-08-31T10:11:54;19.10;99.90
15638;DHT22;26604;53.596;10.042;2023-08-31T10:14:22;19.30;99.90
15638;DHT22;26604;53.596;10.042;2023-08-31T10:16:50;19.60;46.60
15638;DHT22;26604;53.596;10.042;2023-08-31T10:19:18;19.90;1.00
15638;DHT22;26604;53.596;10.042;2023-08-31T10:21:45;20.10;1.00
15638;DHT22;26604;53.596;10.042;2023-08-31T10:24:12;20.30;99.90
15638;DHT22;26604;53.596;10.042;2023-08-31T10:26:39;20.20;99.90
15638;DHT22;26604;53.596;10.042;2023-08-31T10:29:06;20.10;99.90
15638;DHT22;26604;53.596;10.042;2023-08-31T10:31:52;20.10;99.90
15638;DHT22;26604;53.596;10.042;2023-08-31T10:34:34;20.10;99.90
15638;DHT22;26604;53.596;10.042;2023-08-31T10:37:01;20.30;99.90
15638;DHT22;26604;53.596;10.042;2023-08-31T10:39:37;20.50;60.60
15638;DHT22;26604;53.596;10.042;2023-08-31T10:42:04;20.60;99.90
15638;DHT22;26604;53.596;10.042;2023-08-31T10:44:31;20.80;99.90
15638;DHT22;26604;53.596;10.042;2023-08-31T10:47:03;21.00;1.00
15638;DHT22;26604;53.596;10.042;2023-08-31T10:49:30;21.30;1.00
15638;DHT22;26604;53.596;10.042;2023-08-31T10:52:15;21.30;99.90
15638;DHT22;26604;53.596;10.042;2023-08-31T10:54:43;21.00;99.90
15638;DHT22;26604;53.596;10.042;2023-08-31T10:57:10;20.70;99.90
15638;DHT22;26604;53.596;10.042;2023-08-31T10:59:42;20.50;1.00
15638;DHT22;26604;53.596;10.042;2023-08-31T11:02:27;20.40;1.00
15638;DHT22;26604;53.596;10.042;2023-08-31T11:04:55;20.60;1.00
15638;DHT22;26604;53.596;10.042;2023-08-31T11:07:24;20.70;1.00
15638;DHT22;26604;53.596;10.042;2023-08-31T11:09:51;20.70;1.00
15638;DHT22;26604;53.596;10.042;2023-08-31T11:12:22;20.50;1.00
15638;DHT22;26604;53.596;10.042;2023-08-31T11:14:49;20.40;33.10
15638;DHT22;26604;53.596;10.042;2023-08-31T11:17:17;20.30;99.90
15638;DHT22;26604;53.596;10.042;2023-08-31T11:19:44;20.20;96.50
15638;DHT22;26604;53.596;10.042;2023-08-31T11:22:11;20.20;1.00
15638;DHT22;26604;53.596;10.042;2023-08-31T11:24:38;20.20;1.00
15638;DHT22;26604;53.596;10.042;2023-08-31T11:27:08;20.00;1.00
15638;DHT22;26604;53.596;10.042;2023-08-31T11:29:37;20.20;1.00
15638;DHT22;26604;53.596;10.042;2023-08-31T11:32:06;20.50;1.00
15638;DHT22;26604;53.596;10.042;2023-08-31T11:34:34;20.60;1.00
15638;DHT22;26604;53.596;10.042;2023-08-31T11:37:02;20.70;1.00
15638;DHT22;26604;53.596;10.042;2023-08-31T11:39:30;20.50;1.00
15638;DHT22;26604;53.596;10.042;2023-08-31T11:41:57;20.20;1.00
15638;DHT22;26604;53.596;10.042;2023-08-31T11:44:24;19.80;1.00
15638;DHT22;26604;53.596;10.042;2023-08-31T11:46:52;19.40;1.00
15638;DHT22;26604;53.596;10.042;2023-08-31T11:49:19;19.10;99.90
15638;DHT22;26604;53.596;10.042;2023-08-31T11:51:49;18.90;99.90
15638;DHT22;26604;53.596;10.042;2023-08-31T11:54:17;18.70;1.00
15638;DHT22;26604;53.596;10.042;2023-08-31T11:56:44;18.60;1.00
15638;DHT22;26604;53.596;10.042;2023-08-31T11:59:16;18.60;99.90
15638;DHT22;26604;53.596;10.042;2023-08-31T12:01:44;18.70;99.90
15638;DHT22;26604;53.596;10.042;2023-08-31T12:04:13;18.80;99.90
15638;DHT22;26604;53.596;10.042;2023-08-31T12:06:40;19.00;90.40
15638;DHT22;26604;53.596;10.042;2023-08-31T12:09:10;19.30;27.40
15638;DHT22;26604;53.596;10.042;2023-08-31T12:11:37;19.60;1.00
15638;DHT22;26604;53.596;10.042;2023-08-31T12:14:18;19.70;1.00
15638;DHT22;26604;53.596;10.042;2023-08-31T12:16:45;19.70;1.00
15638;DHT22;26604;53.596;10.042;2023-08-31T12:19:12;19.70;1.00
15638;DHT22;26604;53.596;10.042;2023-08-31T12:21:39;19.70;1.00
15638;DHT22;26604;53.596;10.042;2023-08-31T12:24:07;19.70;1.00
15638;DHT22;26604;53.596;10.042;2023-08-31T12:26:35;19.90;1.00
15638;DHT22;26604;53.596;10.042;2023-08-31T12:29:03;20.10;1.00
15638;DHT22;26604;53.596;10.042;2023-08-31T12:31:31;20.30;1.00
15638;DHT22;26604;53.596;10.042;2023-08-31T12:33:58;20.60;99.90
15638;DHT22;26604;53.596;10.042;2023-08-31T12:36:25;20.50;99.90
15638;DHT22;26604;53.596;10.042;2023-08-31T12:38:52;20.40;99.90
15638;DHT22;26604;53.596;10.042;2023-08-31T12:41:19;20.00;99.90
15638;DHT22;26604;53.596;10.042;2023-08-31T12:43:47;19.60;1.00
15638;DHT22;26604;53.596;10.042;2023-08-31T12:46:14;19.20;1.00
15638;DHT22;26604;53.596;10.042;2023-08-31T12:48:42;18.70;99.90
15638;DHT22;26604;53.596;10.042;2023-08-31T12:51:09;17.70;99.90
15638;DHT22;26604;53.596;10.042;2023-08-31T12:53:38;16.70;1.00
15638;DHT22;26604;53.596;10.042;2023-08-31T12:56:05;16.10;1.00
15638;DHT22;26604;53.596;10.042;2023-08-31T12:58:32;15.60;99.90
15638;DHT22;26604;53.596;10.042;2023-08-31T13:01:01;15.30;99.90
15638;DHT22;26604;53.596;10.042;2023-08-31T13:03:28;15.10;99.90
15638;DHT22;26604;53.596;10.042;2023-08-31T13:05:55;15.00;1.00
15638;DHT22;26604;53.596;10.042;2023-08-31T13:08:23;15.10;1.00
15638;DHT22;26604;53.596;10.042;2023-08-31T13:10:53;15.30;1.00
15638;DHT22;26604;53.596;10.042;2023-08-31T13:13:20;15.70;5.60
15638;DHT22;26604;53.596;10.042;2023-08-31T13:15:47;16.20;1.00
15638;DHT22;26604;53.596;10.042;2023-08-31T13:18:16;16.60;99.90
15638;DHT22;26604;53.596;10.042;2023-08-31T13:20:49;17.00;58.70
15638;DHT22;26604;53.596;10.042;2023-08-31T13:23:16;17.40;1.00
15638;DHT22;26604;53.596;10.042;2023-08-31T13:25:42;17.70;1.00
15638;DHT22;26604;53.596;10.042;2023-08-31T13:28:09;17.90;1.00
15638;DHT22;26604;53.596;10.042;2023-08-31T13:30:36;18.00;1.00
15638;DHT22;26604;53.596;10.042;2023-08-31T13:33:03;18.00;1.00
15638;DHT22;26604;53.596;10.042;2023-08-31T13:35:32;18.00;1.00
15638;DHT22;26604;53.596;10.042;2023-08-31T13:37:59;18.00;12.50
15638;DHT22;26604;53.596;10.042;2023-08-31T13:40:26;18.00;1.00
15638;DHT22;26604;53.596;10.042;2023-08-31T13:42:55;17.90;99.90
15638;DHT22;26604;53.596;10.042;2023-08-31T13:45:22;18.00;5.70
15638;DHT22;26604;53.596;10.042;2023-08-31T13:47:49;17.90;55.20
15638;DHT22;26604;53.596;10.042;2023-08-31T13:50:16;17.90;1.00
15638;DHT22;26604;53.596;10.042;2023-08-31T13:52:45;17.90;54.00
15638;DHT22;26604;53.596;10.042;2023-08-31T13:55:12;18.00;99.90
15638;DHT22;26604;53.596;10.042;2023-08-31T13:57:41;18.20;1.00
15638;DHT22;26604;53.596;10.042;2023-08-31T14:00:09;18.30;99.90
15638;DHT22;26604;53.596;10.042;2023-08-31T14:02:36;18.40;99.90
15638;DHT22;26604;53.596;10.042;2023-08-31T14:05:05;18.50;99.90
15638;DHT22;26604;53.596;10.042;2023-08-31T14:07:34;18.60;50.60
15638;DHT22;26604;53.596;10.042;2023-08-31T14:10:03;18.80;99.90
15638;DHT22;26604;53.596;10.042;2023-08-31T14:12:30;19.10;1.00
15638;DHT22;26604;53.596;10.042;2023-08-31T14:14:57;19.40;1.00
15638;DHT22;26604;53.596;10.042;2023-08-31T14:17:26;19.60;1.00
15638;DHT22;26604;53.596;10.042;2023-08-31T14:19:53;19.80;99.90
15638;DHT22;26604;53.596;10.042;2023-08-31T14:22:20;19.70;32.90
15638;DHT22;26604;53.596;10.042;2023-08-31T14:24:48;19.60;1.00
15638;DHT22;26604;53.596;10.042;2023-08-31T14:27:16;19.40;99.90
15638;DHT22;26604;53.596;10.042;2023-08-31T14:29:43;19.10;1.00
15638;DHT22;26604;53.596;10.042;2023-08-31T14:32:10;18.90;26.40
15638;DHT22;26604;53.596;10.042;2023-08-31T14:34:37;19.60;1.00
15638;DHT22;26604;53.596;10.042;2023-08-31T14:37:03;18.70;99.90
15638;DHT22;26604;53.596;10.042;2023-08-31T14:39:30;18.60;1.00
15638;DHT22;26604;53.596;10.042;2023-08-31T14:41:57;18.60;99.90
15638;DHT22;26604;53.596;10.042;2023-08-31T14:44:26;18.50;56.30
15638;DHT22;26604;53.596;10.042;2023-08-31T14:46:52;18.50;99.90
15638;DHT22;26604;53.596;10.042;2023-08-31T14:49:22;18.50;99.90
15638;DHT22;26604;53.596;10.042;2023-08-31T14:51:50;18.40;99.90
15638;DHT22;26604;53.596;10.042;2023-08-31T14:54:17;18.40;99.90
15638;DHT22;26604;53.596;10.042;2023-08-31T14:56:44;18.40;99.90
15638;DHT22;26604;53.596;10.042;2023-08-31T14:59:11;18.40;99.90
15638;DHT22;26604;53.596;10.042;2023-08-31T15:01:39;18.40;99.90
15638;DHT22;26604;53.596;10.042;2023-08-31T15:04:06;18.50;1.00
15638;DHT22;26604;53.596;10.042;2023-08-31T15:06:33;18.70;99.90
15638;DHT22;26604;53.596;10.042;2023-08-31T15:09:00;18.90;1.00
15638;DHT22;26604;53.596;10.042;2023-08-31T15:11:27;19.00;99.90
15638;DHT22;26604;53.596;10.042;2023-08-31T15:13:54;19.10;56.40
15638;DHT22;26604;53.596;10.042;2023-08-31T15:16:20;19.10;1.00
15638;DHT22;26604;53.596;10.042;2023-08-31T15:18:49;19.00;1.00
15638;DHT22;26604;53.596;10.042;2023-08-31T15:21:16;19.00;1.00
15638;DHT22;26604;53.596;10.042;2023-08-31T15:23:43;18.90;1.00